Time;durP1;ratioP1;P1;durP2;ratioP2;P2;SDS_P1;SDS_P2;PMS_P1;PMS_P2;Temp;Humidity;BMP_temperature;BMP_pressure;BME280_temperature;BME280_humidity;BME280_pressure;Samples;Min_cycle;Max_cycle;Signal;HPM_P1;HPM_P2
2022/06/11 00:01:12;;;;;;;1.60;1.20;;;;;;;;;;5043698;28;21141;-77
2022/06/11 00:03:39;;;;;;;3.30;1.60;;;;;;;;;;5052569;28;20469;-77
2022/06/11 00:06:06;;;;;;;1.52;1.30;;;;;;;;;;5047334;28;20236;-78
2022/06/11 00:08:35;;;;;;;2.35;1.30;;;;;;;;;;5055208;28;20225;-80
2022/06/11 00:11:02;;;;;;;2.33;1.00;;;;;;;;;;5038504;28;20196;-78
2022/06/11 00:13:29;;;;;;;1.10;1.00;;;;;;;;;;5053996;28;20202;-78
2022/06/11 00:15:57;;;;;;;1.30;0.90;;;;;;;;;;5047508;28;20520;-78
2022/06/11 00:18:24;;;;;;;1.20;1.10;;;;;;;;;;5053700;28;20216;-80
2022/06/11 00:20:51;;;;;;;1.53;1.23;;;;;;;;;;5042667;28;20466;-78
2022/06/11 00:23:19;;;;;;;1.45;1.27;;;;;;;;;;5049681;28;21207;-80
2022/06/11 00:25:48;;;;;;;1.50;1.40;;;;;;;;;;5041535;28;20583;-81
2022/06/11 00:28:15;;;;;;;1.33;1.10;;;;;;;;;;5051550;28;20206;-80
2022/06/11 00:30:43;;;;;;;2.03;1.40;;;;;;;;;;5046004;28;20209;-82
2022/06/11 00:33:10;;;;;;;4.50;1.73;;;;;;;;;;5057964;28;20448;-79
2022/06/11 00:35:38;;;;;;;1.57;1.10;;;;;;;;;;5040266;28;20834;-80
2022/06/11 00:38:05;;;;;;;1.40;1.00;;;;;;;;;;5052697;28;20966;-79
2022/06/11 00:40:37;;;;;;;2.45;1.25;;;;;;;;;;5045688;28;20735;-83
2022/06/11 00:43:07;;;;;;;1.42;1.15;;;;;;;;;;5041586;28;20230;-80
2022/06/11 00:45:36;;;;;;;1.25;1.00;;;;;;;;;;5048039;28;20643;-78
2022/06/11 00:48:04;;;;;;;1.67;1.40;;;;;;;;;;5045015;28;20640;-78
2022/06/11 00:50:37;;;;;;;1.10;0.98;;;;;;;;;;5050707;28;20825;-78
2022/06/11 00:53:07;;;;;;;1.48;1.20;;;;;;;;;;5065467;28;20196;-78
2022/06/11 00:55:37;;;;;;;1.30;1.20;;;;;;;;;;5041849;28;20555;-78
2022/06/11 00:58:06;;;;;;;1.40;1.20;;;;;;;;;;5052036;28;20521;-79
2022/06/11 01:00:40;;;;;;;1.00;0.90;;;;;;;;;;5051515;28;20208;-78
2022/06/11 01:03:07;;;;;;;1.35;1.10;;;;;;;;;;5055192;28;20444;-78
2022/06/11 01:05:37;;;;;;;1.10;1.00;;;;;;;;;;5045537;28;20202;-78
2022/06/11 01:08:25;;;;;;;1.60;1.42;;;;;;;;;;5048843;28;20208;-78
2022/06/11 01:11:06;;;;;;;1.40;1.30;;;;;;;;;;5050935;28;21124;-78
2022/06/11 01:13:36;;;;;;;1.52;1.33;;;;;;;;;;5051965;28;20645;-77
2022/06/11 01:16:06;;;;;;;2.00;1.45;;;;;;;;;;5040548;28;20665;-75
2022/06/11 01:18:40;;;;;;;2.50;1.10;;;;;;;;;;5052354;28;20209;-76
2022/06/11 01:21:14;;;;;;;1.70;1.13;;;;;;;;;;5044761;28;20347;-76
2022/06/11 01:24:04;;;;;;;2.67;1.52;;;;;;;;;;5034930;28;20189;-76
2022/06/11 01:26:37;;;;;;;2.08;1.10;;;;;;;;;;5050698;28;20293;-78
2022/06/11 01:29:10;;;;;;;2.95;1.30;;;;;;;;;;5050661;28;20293;-75
2022/06/11 01:31:41;;;;;;;2.07;1.30;;;;;;;;;;5045597;28;20204;-78
2022/06/11 01:34:12;;;;;;;1.95;1.55;;;;;;;;;;5051390;28;20467;-77
2022/06/11 01:36:41;;;;;;;2.40;1.27;;;;;;;;;;5042371;28;20229;-77
2022/06/11 01:39:12;;;;;;;3.28;1.63;;;;;;;;;;5052526;28;20439;-78
2022/06/11 01:41:42;;;;;;;1.90;1.50;;;;;;;;;;5048477;28;20225;-76
2022/06/11 01:44:11;;;;;;;2.75;1.33;;;;;;;;;;5048544;28;20368;-76
2022/06/11 01:46:41;;;;;;;1.73;1.50;;;;;;;;;;5054623;28;20276;-77
2022/06/11 01:49:28;;;;;;;2.85;1.40;;;;;;;;;;5048290;28;20223;-77
2022/06/11 01:52:00;;;;;;;2.00;1.20;;;;;;;;;;5033722;28;20202;-76
2022/06/11 01:54:35;;;;;;;1.20;1.10;;;;;;;;;;5034771;28;20205;-79
2022/06/11 01:57:18;;;;;;;2.45;1.50;;;;;;;;;;5059247;28;20194;-77
2022/06/11 01:59:58;;;;;;;2.10;1.88;;;;;;;;;;5032127;28;20197;-77
2022/06/11 02:02:33;;;;;;;1.50;1.10;;;;;;;;;;5046220;28;20204;-77
2022/06/11 02:05:03;;;;;;;1.30;1.13;;;;;;;;;;5047486;28;20198;-79
2022/06/11 02:07:34;;;;;;;1.75;1.40;;;;;;;;;;5041396;28;20231;-77
2022/06/11 02:10:04;;;;;;;1.85;1.33;;;;;;;;;;5045455;28;20201;-79
2022/06/11 02:12:35;;;;;;;1.70;1.30;;;;;;;;;;5051721;28;20212;-79
2022/06/11 02:15:06;;;;;;;3.85;1.50;;;;;;;;;;5035929;28;20668;-81
2022/06/11 02:17:34;;;;;;;1.52;1.17;;;;;;;;;;5048671;28;20201;-78
2022/06/11 02:20:04;;;;;;;2.20;1.48;;;;;;;;;;5050944;28;20713;-79
2022/06/11 02:22:35;;;;;;;1.70;1.35;;;;;;;;;;5043645;28;20202;-82
2022/06/11 02:25:06;;;;;;;2.30;1.35;;;;;;;;;;5042173;28;20274;-84
2022/06/11 02:27:33;;;;;;;1.50;1.40;;;;;;;;;;5052320;28;20255;-86
2022/06/11 02:30:01;;;;;;;1.95;1.15;;;;;;;;;;5042868;28;20199;-82
2022/06/11 02:32:29;;;;;;;1.35;1.25;;;;;;;;;;5051502;28;20610;-81
2022/06/11 02:34:58;;;;;;;3.47;1.30;;;;;;;;;;5043088;28;20212;-81
2022/06/11 02:37:27;;;;;;;2.22;1.20;;;;;;;;;;5048108;28;20192;-82
2022/06/11 02:39:58;;;;;;;1.53;1.30;;;;;;;;;;5038875;28;20195;-82
2022/06/11 02:42:26;;;;;;;1.48;1.30;;;;;;;;;;5050207;28;20867;-82
2022/06/11 02:44:53;;;;;;;1.85;1.60;;;;;;;;;;5048004;28;20201;-84
2022/06/11 02:47:21;;;;;;;1.20;1.10;;;;;;;;;;5048625;28;20274;-82
2022/06/11 02:49:48;;;;;;;1.20;1.10;;;;;;;;;;5042160;28;20653;-81
2022/06/11 02:52:18;;;;;;;2.45;1.30;;;;;;;;;;5047231;28;20212;-82
2022/06/11 02:54:46;;;;;;;1.77;1.38;;;;;;;;;;5036691;28;20195;-82
2022/06/11 02:57:18;;;;;;;1.92;1.30;;;;;;;;;;5051342;28;20212;-81
2022/06/11 02:59:46;;;;;;;1.65;1.15;;;;;;;;;;5041927;28;20196;-82
2022/06/11 03:02:13;;;;;;;1.83;1.02;;;;;;;;;;5046984;28;20656;-81
2022/06/11 03:04:41;;;;;;;2.05;1.20;;;;;;;;;;5052410;28;20198;-83
2022/06/11 03:07:08;;;;;;;2.30;1.33;;;;;;;;;;5047888;28;20334;-83
2022/06/11 03:09:36;;;;;;;1.20;1.10;;;;;;;;;;5048450;28;20241;-81
2022/06/11 03:12:04;;;;;;;1.20;0.95;;;;;;;;;;5049796;28;20207;-81
2022/06/11 03:14:32;;;;;;;1.50;1.20;;;;;;;;;;5043231;28;20202;-81
2022/06/11 03:16:59;;;;;;;2.17;1.33;;;;;;;;;;5048422;28;20250;-81
2022/06/11 03:19:27;;;;;;;1.30;1.20;;;;;;;;;;5059039;28;20261;-81
2022/06/11 03:21:55;;;;;;;1.52;1.40;;;;;;;;;;5049639;28;20203;-82
2022/06/11 03:24:22;;;;;;;1.52;1.42;;;;;;;;;;5044805;28;20208;-80
2022/06/11 03:26:49;;;;;;;1.80;1.30;;;;;;;;;;5053577;28;20260;-81
2022/06/11 03:29:16;;;;;;;1.90;1.33;;;;;;;;;;5052144;28;20209;-81
2022/06/11 03:31:45;;;;;;;2.03;1.35;;;;;;;;;;5047521;28;20207;-81
2022/06/11 03:34:12;;;;;;;1.83;1.20;;;;;;;;;;5054445;28;20257;-81
2022/06/11 03:36:40;;;;;;;2.10;1.45;;;;;;;;;;5052522;28;20620;-84
2022/06/11 03:39:07;;;;;;;2.50;1.58;;;;;;;;;;5058043;28;20205;-84
2022/06/11 03:41:35;;;;;;;3.22;1.40;;;;;;;;;;5049603;28;20620;-83
2022/06/11 03:44:02;;;;;;;1.52;1.23;;;;;;;;;;5043176;28;20200;-84
2022/06/11 03:46:29;;;;;;;3.08;1.55;;;;;;;;;;5048756;28;20569;-82
2022/06/11 03:48:58;;;;;;;3.08;1.40;;;;;;;;;;5048454;28;20215;-82
2022/06/11 03:51:25;;;;;;;2.40;2.05;;;;;;;;;;5050215;28;20206;-83
2022/06/11 03:53:52;;;;;;;2.47;2.15;;;;;;;;;;5064523;28;21471;-83
2022/06/11 03:56:19;;;;;;;1.60;1.40;;;;;;;;;;5047524;28;20203;-82
2022/06/11 03:58:47;;;;;;;2.35;1.40;;;;;;;;;;5058144;28;20237;-82
2022/06/11 04:01:18;;;;;;;2.00;1.60;;;;;;;;;;5052059;28;20226;-81
2022/06/11 04:03:47;;;;;;;2.35;1.60;;;;;;;;;;5052844;28;20203;-83
2022/06/11 04:06:16;;;;;;;2.45;1.65;;;;;;;;;;5039509;28;20562;-83
2022/06/11 04:08:43;;;;;;;2.25;1.50;;;;;;;;;;5045507;28;20214;-83
2022/06/11 04:11:11;;;;;;;2.20;1.70;;;;;;;;;;5039597;28;20204;-84
2022/06/11 04:13:39;;;;;;;2.65;2.05;;;;;;;;;;5048487;28;20215;-84
2022/06/11 04:16:07;;;;;;;3.53;1.63;;;;;;;;;;5052678;28;20207;-84
2022/06/11 04:18:35;;;;;;;2.38;1.65;;;;;;;;;;5055364;28;20191;-83
2022/06/11 04:21:04;;;;;;;2.25;1.60;;;;;;;;;;5048073;28;20204;-84
2022/06/11 04:23:33;;;;;;;1.80;1.33;;;;;;;;;;5048060;28;20207;-82
2022/06/11 04:26:01;;;;;;;2.15;1.95;;;;;;;;;;5052667;28;20195;-83
2022/06/11 04:28:29;;;;;;;2.50;2.00;;;;;;;;;;5056061;28;20271;-82
2022/06/11 04:30:56;;;;;;;1.67;1.30;;;;;;;;;;5049151;28;20266;-82
2022/06/11 04:33:23;;;;;;;2.42;1.65;;;;;;;;;;5048191;28;20203;-82
2022/06/11 04:35:50;;;;;;;2.85;1.92;;;;;;;;;;5049313;28;20203;-82
2022/06/11 04:38:18;;;;;;;3.55;1.98;;;;;;;;;;5051858;28;20674;-81
2022/06/11 04:40:47;;;;;;;1.77;1.55;;;;;;;;;;5044917;28;20199;-82
2022/06/11 04:43:14;;;;;;;1.70;1.60;;;;;;;;;;5050743;28;20223;-83
2022/06/11 04:45:41;;;;;;;1.55;1.02;;;;;;;;;;5047654;28;20198;-82
2022/06/11 04:48:08;;;;;;;2.03;1.80;;;;;;;;;;5053927;28;20226;-84
2022/06/11 04:50:36;;;;;;;3.60;1.30;;;;;;;;;;5046372;28;20675;-84
2022/06/11 04:53:03;;;;;;;2.33;1.77;;;;;;;;;;5059593;28;20225;-84
2022/06/11 04:55:31;;;;;;;2.40;2.17;;;;;;;;;;5051373;28;20269;-83
2022/06/11 04:57:59;;;;;;;2.33;1.38;;;;;;;;;;5061568;28;20202;-83
2022/06/11 05:00:28;;;;;;;2.15;1.80;;;;;;;;;;5046190;28;20199;-82
2022/06/11 05:02:56;;;;;;;2.40;1.60;;;;;;;;;;5051084;28;20302;-83
2022/06/11 05:05:23;;;;;;;2.72;1.50;;;;;;;;;;5050133;28;20532;-83
2022/06/11 05:07:50;;;;;;;1.48;1.30;;;;;;;;;;5047569;28;20285;-83
2022/06/11 05:10:20;;;;;;;1.48;1.33;;;;;;;;;;5050334;28;20252;-83
2022/06/11 05:12:47;;;;;;;2.00;1.60;;;;;;;;;;5040433;28;20204;-83
2022/06/11 05:15:15;;;;;;;1.63;1.20;;;;;;;;;;5042556;28;20425;-84
2022/06/11 05:17:42;;;;;;;1.80;1.40;;;;;;;;;;5050476;28;20244;-83
2022/06/11 05:20:10;;;;;;;1.83;1.45;;;;;;;;;;5048322;28;20211;-82
2022/06/11 05:22:38;;;;;;;2.60;1.48;;;;;;;;;;5053488;28;20195;-83
2022/06/11 05:25:05;;;;;;;1.85;1.30;;;;;;;;;;5045003;28;20214;-83
2022/06/11 05:27:33;;;;;;;1.13;1.02;;;;;;;;;;5057765;28;20206;-84
2022/06/11 05:30:02;;;;;;;3.60;1.70;;;;;;;;;;5046605;28;20196;-84
2022/06/11 05:32:32;;;;;;;1.63;1.40;;;;;;;;;;5051465;28;20207;-83
2022/06/11 05:35:00;;;;;;;1.95;1.38;;;;;;;;;;5050774;28;20223;-84
2022/06/11 05:37:27;;;;;;;3.63;1.45;;;;;;;;;;5048899;28;20201;-83
2022/06/11 05:39:54;;;;;;;2.50;1.80;;;;;;;;;;5051400;28;20261;-85
2022/06/11 05:42:23;;;;;;;2.33;1.20;;;;;;;;;;5047857;28;20766;-82
2022/06/11 05:44:50;;;;;;;2.27;1.57;;;;;;;;;;5044039;28;20464;-82
2022/06/11 05:47:19;;;;;;;1.93;1.60;;;;;;;;;;5055561;28;20518;-83
2022/06/11 05:49:49;;;;;;;2.20;1.37;;;;;;;;;;5053120;28;20932;-83
2022/06/11 05:52:18;;;;;;;1.60;1.20;;;;;;;;;;5043633;28;20465;-84
2022/06/11 05:54:46;;;;;;;1.77;1.40;;;;;;;;;;5046998;28;20461;-82
2022/06/11 05:57:16;;;;;;;2.43;1.57;;;;;;;;;;5047901;28;20480;-83
2022/06/11 05:59:44;;;;;;;1.63;1.10;;;;;;;;;;5044010;28;20509;-83
2022/06/11 06:02:13;;;;;;;1.10;1.00;;;;;;;;;;5050234;28;20453;-84
2022/06/11 06:04:41;;;;;;;2.07;1.20;;;;;;;;;;5046039;28;20465;-85
2022/06/11 06:07:10;;;;;;;2.33;1.87;;;;;;;;;;5044916;28;20462;-85
2022/06/11 06:09:38;;;;;;;1.53;1.07;;;;;;;;;;5047064;28;20461;-85
2022/06/11 06:12:05;;;;;;;2.40;0.90;;;;;;;;;;5036696;28;20580;-86
2022/06/11 06:14:32;;;;;;;1.20;1.10;;;;;;;;;;5052756;28;20457;-87
2022/06/11 06:16:59;;;;;;;1.30;1.03;;;;;;;;;;5050619;28;20461;-85
2022/06/11 06:19:26;;;;;;;3.50;1.50;;;;;;;;;;5049737;28;20461;-86
2022/06/11 06:21:53;;;;;;;2.40;1.23;;;;;;;;;;5046427;28;20465;-85
2022/06/11 06:24:22;;;;;;;2.60;1.43;;;;;;;;;;5041609;28;20466;-88
2022/06/11 06:26:49;;;;;;;1.40;1.00;;;;;;;;;;5054605;28;20445;-88
2022/06/11 06:29:16;;;;;;;1.77;1.10;;;;;;;;;;5041185;28;20486;-86
2022/06/11 06:31:43;;;;;;;1.90;1.30;;;;;;;;;;5049062;28;20454;-89
2022/06/11 06:34:10;;;;;;;1.40;1.00;;;;;;;;;;5050422;28;20457;-87
2022/06/11 06:36:37;;;;;;;1.73;1.13;;;;;;;;;;5043275;28;20473;-87
2022/06/11 06:39:04;;;;;;;1.83;1.10;;;;;;;;;;5051217;28;21116;-86
2022/06/11 06:41:33;;;;;;;1.50;1.30;;;;;;;;;;5046069;28;21070;-85
2022/06/11 06:44:00;;;;;;;2.10;1.00;;;;;;;;;;5047563;28;20473;-86
2022/06/11 06:46:27;;;;;;;2.37;1.30;;;;;;;;;;5049347;28;20468;-85
2022/06/11 06:48:54;;;;;;;1.60;1.27;;;;;;;;;;5050037;28;20491;-86
2022/06/11 06:51:22;;;;;;;2.00;1.20;;;;;;;;;;5051391;28;20457;-86
2022/06/11 06:53:50;;;;;;;2.10;1.47;;;;;;;;;;5053670;28;20466;-89
2022/06/11 06:56:17;;;;;;;1.53;1.20;;;;;;;;;;5048533;28;20491;-86
2022/06/11 06:58:45;;;;;;;1.87;1.43;;;;;;;;;;5052956;28;21068;-86
2022/06/11 07:01:12;;;;;;;2.23;1.20;;;;;;;;;;5045336;28;20470;-86
2022/06/11 07:03:41;;;;;;;2.90;1.10;;;;;;;;;;5044427;28;20462;-86
2022/06/11 07:06:08;;;;;;;1.67;1.10;;;;;;;;;;5046451;28;20457;-86
2022/06/11 07:08:35;;;;;;;3.37;2.80;;;;;;;;;;5037091;28;20480;-87
2022/06/11 07:11:03;;;;;;;1.20;1.10;;;;;;;;;;5039147;28;20464;-87
2022/06/11 07:13:31;;;;;;;2.20;1.43;;;;;;;;;;5045000;28;20497;-86
2022/06/11 07:16:00;;;;;;;1.30;1.20;;;;;;;;;;5047166;28;20469;-87
2022/06/11 07:18:29;;;;;;;1.53;1.23;;;;;;;;;;5051650;28;20548;-89
2022/06/11 07:20:57;;;;;;;2.07;1.37;;;;;;;;;;5048015;28;20959;-87
2022/06/11 07:23:25;;;;;;;2.63;1.20;;;;;;;;;;5051893;28;20514;-91
2022/06/11 07:25:53;;;;;;;2.30;1.47;;;;;;;;;;5049682;28;20448;-87
2022/06/11 07:28:23;;;;;;;1.10;0.93;;;;;;;;;;5048679;28;20532;-87
2022/06/11 07:30:50;;;;;;;2.70;1.30;;;;;;;;;;5050122;28;20448;-88
2022/06/11 07:33:21;;;;;;;2.17;1.20;;;;;;;;;;5049798;28;20503;-87
2022/06/11 07:35:48;;;;;;;1.80;1.20;;;;;;;;;;5047454;28;20466;-88
2022/06/11 07:38:16;;;;;;;1.63;1.07;;;;;;;;;;5050201;28;20457;-85
2022/06/11 07:40:43;;;;;;;1.47;1.23;;;;;;;;;;5042161;28;20454;-88
2022/06/11 07:43:10;;;;;;;2.33;1.20;;;;;;;;;;5044616;28;20482;-84
2022/06/11 07:45:38;;;;;;;1.77;1.40;;;;;;;;;;5048183;28;20460;-83
2022/06/11 07:48:05;;;;;;;1.23;1.10;;;;;;;;;;5054427;28;20887;-85
2022/06/11 07:50:35;;;;;;;1.30;1.20;;;;;;;;;;5053411;28;20511;-85
2022/06/11 07:53:03;;;;;;;2.60;1.50;;;;;;;;;;5045377;28;20461;-85
2022/06/11 07:55:30;;;;;;;1.37;1.03;;;;;;;;;;5042513;28;20461;-84
2022/06/11 07:57:57;;;;;;;3.10;1.40;;;;;;;;;;5041072;28;20947;-86
2022/06/11 08:00:26;;;;;;;1.23;1.00;;;;;;;;;;5044342;28;20474;-83
2022/06/11 08:02:53;;;;;;;2.53;1.33;;;;;;;;;;5041810;28;20465;-83
2022/06/11 08:05:20;;;;;;;1.93;1.57;;;;;;;;;;5035486;28;20515;-81
2022/06/11 08:07:51;;;;;;;3.03;1.33;;;;;;;;;;5038453;28;20998;-87
2022/06/11 08:10:18;;;;;;;1.80;1.50;;;;;;;;;;5043412;28;20548;-84
2022/06/11 08:12:45;;;;;;;1.60;1.00;;;;;;;;;;5052865;28;20437;-83
2022/06/11 08:15:12;;;;;;;1.60;1.00;;;;;;;;;;5039832;28;20875;-84
2022/06/11 08:17:40;;;;;;;2.80;1.30;;;;;;;;;;5051278;28;20820;-85
2022/06/11 08:20:09;;;;;;;2.33;1.30;;;;;;;;;;5037240;28;20556;-82
2022/06/11 08:22:36;;;;;;;3.73;1.20;;;;;;;;;;5038347;28;20457;-83
2022/06/11 08:25:05;;;;;;;3.77;1.40;;;;;;;;;;5047220;28;20465;-82
2022/06/11 08:27:32;;;;;;;2.00;1.20;;;;;;;;;;5058905;28;20439;-82
2022/06/11 08:29:59;;;;;;;3.10;1.40;;;;;;;;;;5049926;28;21039;-81
2022/06/11 08:32:27;;;;;;;1.40;1.30;;;;;;;;;;5048221;28;20458;-81
2022/06/11 08:34:54;;;;;;;1.60;1.50;;;;;;;;;;5036767;28;20469;-84
2022/06/11 08:37:22;;;;;;;2.70;1.17;;;;;;;;;;5041604;28;20454;-83
2022/06/11 08:39:50;;;;;;;2.20;1.20;;;;;;;;;;5045348;28;20453;-84
2022/06/11 08:42:30;;;;;;;1.63;1.33;;;;;;;;;;5048107;28;20485;-82
2022/06/11 08:44:57;;;;;;;1.20;1.10;;;;;;;;;;5044257;28;20875;-82
2022/06/11 08:47:27;;;;;;;1.70;1.40;;;;;;;;;;5043558;28;20945;-83
2022/06/11 08:49:56;;;;;;;2.17;1.10;;;;;;;;;;5044873;28;20477;-81
2022/06/11 08:52:23;;;;;;;2.10;1.90;;;;;;;;;;5032295;28;20454;-85
2022/06/11 08:54:50;;;;;;;2.60;1.20;;;;;;;;;;5056393;28;20445;-83
2022/06/11 08:57:22;;;;;;;3.00;1.10;;;;;;;;;;5048304;28;20499;-83
2022/06/11 08:59:57;;;;;;;1.03;0.87;;;;;;;;;;5054178;28;20553;-86
2022/06/11 09:02:31;;;;;;;2.20;1.10;;;;;;;;;;5039383;28;20492;-83
2022/06/11 09:05:08;;;;;;;2.37;1.40;;;;;;;;;;5039738;28;20454;-83
2022/06/11 09:07:52;;;;;;;1.53;1.33;;;;;;;;;;5035875;28;20490;-85
2022/06/11 09:10:26;;;;;;;2.57;1.50;;;;;;;;;;5047396;28;20882;-83
2022/06/11 09:13:05;;;;;;;4.50;1.40;;;;;;;;;;5047906;28;20465;-82
2022/06/11 09:15:38;;;;;;;3.83;1.40;;;;;;;;;;5039919;28;20554;-83
2022/06/11 09:18:23;;;;;;;2.43;1.30;;;;;;;;;;5041754;28;20925;-83
2022/06/11 09:20:57;;;;;;;1.50;1.40;;;;;;;;;;5049032;28;20472;-82
2022/06/11 09:23:38;;;;;;;4.03;1.70;;;;;;;;;;5041725;28;20461;-82
2022/06/11 09:26:12;;;;;;;3.70;1.50;;;;;;;;;;5047710;28;20459;-82
2022/06/11 09:28:42;;;;;;;1.70;1.30;;;;;;;;;;5051335;28;20475;-81
2022/06/11 09:31:14;;;;;;;1.80;1.40;;;;;;;;;;5036220;28;20468;-82
2022/06/11 09:33:46;;;;;;;1.60;1.27;;;;;;;;;;5046153;28;20462;-83
2022/06/11 09:36:15;;;;;;;2.13;1.30;;;;;;;;;;5038699;28;20465;-80
2022/06/11 09:38:48;;;;;;;1.70;1.20;;;;;;;;;;5036463;28;20508;-80
2022/06/11 09:41:18;;;;;;;1.87;1.73;;;;;;;;;;5046946;28;20521;-80
2022/06/11 09:43:49;;;;;;;2.90;1.37;;;;;;;;;;5044546;28;20821;-81
2022/06/11 09:46:21;;;;;;;1.43;1.27;;;;;;;;;;5045131;28;20461;-82
2022/06/11 09:49:00;;;;;;;2.37;1.90;;;;;;;;;;5040309;28;20507;-81
2022/06/11 09:51:32;;;;;;;3.40;1.70;;;;;;;;;;5052733;28;20865;-82
2022/06/11 09:54:04;;;;;;;1.63;1.53;;;;;;;;;;5047442;28;20462;-83
2022/06/11 09:56:35;;;;;;;3.60;1.73;;;;;;;;;;5046373;28;20438;-83
2022/06/11 09:59:08;;;;;;;2.37;1.70;;;;;;;;;;5041849;28;20454;-85
2022/06/11 10:01:41;;;;;;;2.03;1.60;;;;;;;;;;5039566;28;20990;-85
2022/06/11 10:04:11;;;;;;;2.53;1.33;;;;;;;;;;5043123;28;21003;-83
2022/06/11 10:06:41;;;;;;;1.43;1.13;;;;;;;;;;5044387;28;20461;-88
2022/06/11 10:09:14;;;;;;;2.53;1.80;;;;;;;;;;5045332;28;20491;-85
2022/06/11 10:11:45;;;;;;;1.57;1.47;;;;;;;;;;5048591;28;20460;-86
2022/06/11 10:14:32;;;;;;;1.70;1.33;;;;;;;;;;5040606;28;20471;-85
2022/06/11 10:17:04;;;;;;;1.50;1.40;;;;;;;;;;5040362;28;20821;-84
2022/06/11 10:19:34;;;;;;;2.20;1.73;;;;;;;;;;5046613;28;20461;-84
2022/06/11 10:22:06;;;;;;;3.10;1.63;;;;;;;;;;5048433;28;20864;-86
2022/06/11 10:24:35;;;;;;;1.60;1.33;;;;;;;;;;5043730;28;20528;-85
2022/06/11 10:27:05;;;;;;;3.97;2.00;;;;;;;;;;5043611;28;20456;-84
2022/06/11 10:29:34;;;;;;;2.80;1.50;;;;;;;;;;5044393;28;20489;-86
2022/06/11 10:32:06;;;;;;;4.37;2.10;;;;;;;;;;5045803;28;20905;-84
2022/06/11 10:34:34;;;;;;;3.60;2.10;;;;;;;;;;5040261;28;20462;-83
2022/06/11 10:37:02;;;;;;;2.37;1.40;;;;;;;;;;5044991;28;20489;-85
2022/06/11 10:39:31;;;;;;;3.03;1.80;;;;;;;;;;5047980;28;20465;-83
2022/06/11 10:42:00;;;;;;;2.10;1.90;;;;;;;;;;5042867;28;20477;-85
2022/06/11 10:44:35;;;;;;;2.00;1.80;;;;;;;;;;5039183;28;20462;-83
2022/06/11 10:47:10;;;;;;;2.13;1.60;;;;;;;;;;5044956;28;20468;-85
2022/06/11 10:49:37;;;;;;;2.07;1.70;;;;;;;;;;5062993;28;20476;-87
2022/06/11 10:52:08;;;;;;;3.57;2.40;;;;;;;;;;5042526;28;20975;-90
2022/06/11 10:54:35;;;;;;;2.83;2.30;;;;;;;;;;5041034;28;20458;-82
2022/06/11 10:57:05;;;;;;;1.80;1.70;;;;;;;;;;5040665;28;20473;-88
2022/06/11 10:59:34;;;;;;;1.73;1.63;;;;;;;;;;5044590;28;20950;-86
2022/06/11 11:02:03;;;;;;;2.10;1.90;;;;;;;;;;5043597;28;20766;-84
2022/06/11 11:04:43;;;;;;;2.10;1.90;;;;;;;;;;5045260;28;20462;-84
2022/06/11 11:07:15;;;;;;;2.37;2.13;;;;;;;;;;5044502;28;20468;-87
2022/06/11 11:09:42;;;;;;;3.07;2.33;;;;;;;;;;5041844;28;20485;-87
2022/06/11 11:12:17;;;;;;;2.40;1.77;;;;;;;;;;5041817;28;20785;-87
2022/06/11 11:14:46;;;;;;;3.57;2.17;;;;;;;;;;5037031;28;21013;-89
2022/06/11 11:17:17;;;;;;;2.30;2.10;;;;;;;;;;5045728;28;20920;-87
2022/06/11 11:20:29;;;;;;;3.80;2.23;;;;;;;;;;5046475;28;20519;-86
2022/06/11 11:22:35;;;;;;;2.37;2.17;;;;;;;;;;5046589;28;20495;-82
2022/06/11 11:25:03;;;;;;;3.53;1.70;;;;;;;;;;5038793;28;20482;-86
2022/06/11 11:27:32;;;;;;;3.50;2.43;;;;;;;;;;5046871;28;20446;-87
2022/06/11 11:30:01;;;;;;;1.70;1.60;;;;;;;;;;5029920;28;20556;-86
2022/06/11 11:32:30;;;;;;;2.90;2.30;;;;;;;;;;5044995;28;20468;-86
2022/06/11 11:34:58;;;;;;;1.93;1.67;;;;;;;;;;5034003;28;20480;-86
2022/06/11 11:37:26;;;;;;;3.93;2.50;;;;;;;;;;5035294;28;20462;-85
2022/06/11 11:39:54;;;;;;;2.43;2.23;;;;;;;;;;5046203;28;20472;-86
2022/06/11 11:42:23;;;;;;;3.30;2.47;;;;;;;;;;5035847;28;20508;-87
2022/06/11 11:44:51;;;;;;;2.53;2.30;;;;;;;;;;5032681;28;21017;-85
2022/06/11 11:47:20;;;;;;;4.53;2.50;;;;;;;;;;5050564;28;21030;-88
2022/06/11 11:49:52;;;;;;;2.50;2.30;;;;;;;;;;5049196;28;20534;-82
2022/06/11 11:52:23;;;;;;;2.60;2.40;;;;;;;;;;5040988;28;20461;-82
2022/06/11 11:54:54;;;;;;;5.87;2.70;;;;;;;;;;5037338;28;20458;-82
2022/06/11 11:57:22;;;;;;;2.57;2.37;;;;;;;;;;5049120;28;20940;-85
2022/06/11 11:59:51;;;;;;;4.10;2.20;;;;;;;;;;5041158;28;20458;-82
2022/06/11 12:02:21;;;;;;;2.50;2.30;;;;;;;;;;5040330;28;20530;-81
2022/06/11 12:04:51;;;;;;;2.73;2.53;;;;;;;;;;5042748;28;20458;-81
2022/06/11 12:07:20;;;;;;;4.03;2.87;;;;;;;;;;5042815;28;20527;-81
2022/06/11 12:09:51;;;;;;;2.93;2.20;;;;;;;;;;5049047;28;20488;-81
2022/06/11 12:12:20;;;;;;;2.93;2.73;;;;;;;;;;5041679;28;20461;-81
2022/06/11 12:14:50;;;;;;;2.17;2.07;;;;;;;;;;5038995;28;20466;-81
2022/06/11 12:17:24;;;;;;;3.63;2.00;;;;;;;;;;5043173;28;20461;-81
2022/06/11 12:19:54;;;;;;;3.93;2.33;;;;;;;;;;5032432;28;21024;-80
2022/06/11 12:22:25;;;;;;;2.83;2.60;;;;;;;;;;5034254;28;20465;-82
2022/06/11 12:24:55;;;;;;;2.40;2.10;;;;;;;;;;5035480;28;21113;-81
2022/06/11 12:27:27;;;;;;;3.33;2.43;;;;;;;;;;5045700;28;20526;-81
2022/06/11 12:29:56;;;;;;;2.80;2.60;;;;;;;;;;5039523;28;20475;-81
2022/06/11 12:32:23;;;;;;;2.60;2.40;;;;;;;;;;5047991;28;20507;-80
2022/06/11 12:34:52;;;;;;;3.30;3.00;;;;;;;;;;5033498;28;20576;-81
2022/06/11 12:37:23;;;;;;;3.03;2.70;;;;;;;;;;5035876;28;20461;-82
2022/06/11 12:39:58;;;;;;;2.73;2.20;;;;;;;;;;5052095;28;20502;-82
2022/06/11 12:42:29;;;;;;;3.20;2.17;;;;;;;;;;5030455;28;20489;-81
2022/06/11 12:45:03;;;;;;;2.50;1.70;;;;;;;;;;5044655;28;20511;-80
2022/06/11 12:47:36;;;;;;;3.50;1.87;;;;;;;;;;5032048;28;20633;-83
2022/06/11 12:50:06;;;;;;;2.43;2.23;;;;;;;;;;5036527;28;20488;-84
2022/06/11 12:52:38;;;;;;;2.67;2.20;;;;;;;;;;5040353;28;20536;-84
2022/06/11 12:55:27;;;;;;;2.93;2.63;;;;;;;;;;5034183;28;20462;-82
2022/06/11 12:58:02;;;;;;;2.13;1.87;;;;;;;;;;5035978;28;20470;-82
2022/06/11 13:00:36;;;;;;;2.27;2.07;;;;;;;;;;5040537;28;20948;-84
2022/06/11 13:03:07;;;;;;;2.50;2.10;;;;;;;;;;5031448;28;20456;-80
2022/06/11 13:05:49;;;;;;;3.30;2.77;;;;;;;;;;5042861;28;20454;-81
2022/06/11 13:08:33;;;;;;;2.53;2.33;;;;;;;;;;5051653;28;20468;-80
2022/06/11 13:11:02;;;;;;;3.03;2.73;;;;;;;;;;5033870;28;20557;-81
2022/06/11 13:13:38;;;;;;;3.30;2.60;;;;;;;;;;5037732;28;20979;-81
2022/06/11 13:16:09;;;;;;;2.37;2.10;;;;;;;;;;5036384;28;20560;-82
2022/06/11 13:18:43;;;;;;;3.00;2.20;;;;;;;;;;5040321;28;20551;-86
2022/06/11 13:21:12;;;;;;;2.63;2.20;;;;;;;;;;5041105;28;20945;-84
2022/06/11 13:23:45;;;;;;;2.73;1.90;;;;;;;;;;5041770;28;21033;-83
2022/06/11 13:26:13;;;;;;;2.77;2.40;;;;;;;;;;5044476;28;20931;-88
2022/06/11 13:28:47;;;;;;;3.73;2.20;;;;;;;;;;5044925;28;20860;-86
2022/06/11 13:31:19;;;;;;;2.40;2.20;;;;;;;;;;5042168;28;20834;-84
2022/06/11 13:34:04;;;;;;;1.97;1.87;;;;;;;;;;5038824;28;20454;-85
2022/06/11 13:36:37;;;;;;;2.10;1.90;;;;;;;;;;5036844;28;20521;-84
2022/06/11 13:39:12;;;;;;;2.13;1.93;;;;;;;;;;5030115;28;20446;-81
2022/06/11 13:41:46;;;;;;;4.03;2.27;;;;;;;;;;5045158;28;20472;-83
2022/06/11 13:44:23;;;;;;;2.67;2.13;;;;;;;;;;5046742;28;21254;-85
2022/06/11 13:46:54;;;;;;;4.37;2.80;;;;;;;;;;5046189;28;20556;-85
2022/06/11 13:49:30;;;;;;;2.60;2.40;;;;;;;;;;5045798;28;20482;-85
2022/06/11 13:51:59;;;;;;;2.17;1.97;;;;;;;;;;5041702;28;20964;-89
2022/06/11 13:57:36;;;;;;;2.23;2.00;;;;;;;;;;5032795;28;20433;-87
2022/06/11 14:00:09;;;;;;;2.50;2.30;;;;;;;;;;5043717;28;20849;-88
2022/06/11 14:02:51;;;;;;;2.33;2.10;;;;;;;;;;5043263;28;20454;-84
2022/06/11 14:05:20;;;;;;;2.87;1.90;;;;;;;;;;5037661;28;20469;-85
2022/06/11 14:07:48;;;;;;;2.47;2.00;;;;;;;;;;5032758;28;20439;-89
2022/06/11 14:10:24;;;;;;;3.53;2.10;;;;;;;;;;5031256;28;20990;-87
2022/06/11 14:12:52;;;;;;;2.33;1.60;;;;;;;;;;5039889;28;20462;-82
2022/06/11 14:15:36;;;;;;;2.10;1.83;;;;;;;;;;5035778;28;20462;-85
2022/06/11 14:18:22;;;;;;;1.70;1.53;;;;;;;;;;5035256;28;20488;-84
2022/06/11 14:20:51;;;;;;;2.00;1.80;;;;;;;;;;5044270;28;20504;-87
2022/06/11 14:23:37;;;;;;;2.57;2.00;;;;;;;;;;5032961;28;20450;-83
2022/06/11 14:26:06;;;;;;;3.63;2.00;;;;;;;;;;5043239;28;20449;-85
2022/06/11 14:28:41;;;;;;;2.77;1.80;;;;;;;;;;5046582;28;20515;-84
2022/06/11 14:31:10;;;;;;;1.93;1.70;;;;;;;;;;5031283;28;20711;-85
2022/06/11 14:33:38;;;;;;;1.73;1.57;;;;;;;;;;5038856;28;20531;-83
2022/06/11 14:36:07;;;;;;;1.80;1.53;;;;;;;;;;5035999;28;20477;-85
2022/06/11 14:38:44;;;;;;;2.47;1.57;;;;;;;;;;5041071;28;20964;-86
2022/06/11 14:41:19;;;;;;;2.23;1.60;;;;;;;;;;5037524;28;20870;-84
2022/06/11 14:44:05;;;;;;;1.70;1.60;;;;;;;;;;5041855;28;21001;-83
2022/06/11 14:46:45;;;;;;;2.70;1.80;;;;;;;;;;5040041;28;20461;-85
2022/06/11 14:49:13;;;;;;;2.40;1.77;;;;;;;;;;5048834;28;20485;-84
2022/06/11 14:51:43;;;;;;;2.60;2.03;;;;;;;;;;5028868;28;21127;-87
2022/06/11 14:54:23;;;;;;;2.13;2.03;;;;;;;;;;5040716;28;20457;-86
2022/06/11 14:57:10;;;;;;;2.03;1.50;;;;;;;;;;5049081;28;20533;-86
2022/06/11 14:59:51;;;;;;;3.67;1.70;;;;;;;;;;5038863;28;20457;-83
2022/06/11 15:02:39;;;;;;;3.13;1.80;;;;;;;;;;5048206;28;20437;-84
2022/06/11 15:05:12;;;;;;;4.30;1.90;;;;;;;;;;5036607;28;20814;-85